Time;durP1;ratioP1;P1;durP2;ratioP2;P2;SDS_P1;SDS_P2;PMS_P1;PMS_P2;Temp;Humidity;BMP_temperature;BMP_pressure;BME280_temperature;BME280_humidity;BME280_pressure;Samples;Min_cycle;Max_cycle;Signal;HPM_P1;HPM_P2
2022/01/29 00:01:55;;;;;;;;;;;2.40;99.90;;;;;;5036802;28;19980;-81
2022/01/29 00:04:22;;;;;;;;;;;2.40;99.90;;;;;;5038061;28;19983;-82
2022/01/29 00:06:52;;;;;;;;;;;2.40;99.90;;;;;;5041733;28;19945;-81
2022/01/29 00:09:19;;;;;;;;;;;2.40;99.90;;;;;;5040345;28;20033;-81
2022/01/29 00:11:46;;;;;;;;;;;2.40;99.90;;;;;;5033705;28;20095;-81
2022/01/29 00:14:14;;;;;;;;;;;2.40;99.90;;;;;;5032959;28;19988;-81
2022/01/29 00:16:41;;;;;;;;;;;2.40;99.90;;;;;;5035523;28;19925;-81
2022/01/29 00:19:08;;;;;;;;;;;2.40;99.90;;;;;;5048334;28;19948;-81
2022/01/29 00:21:35;;;;;;;;;;;2.40;99.90;;;;;;5038429;28;19925;-81
2022/01/29 00:24:02;;;;;;;;;;;2.40;99.90;;;;;;5032559;28;19935;-81
2022/01/29 00:26:29;;;;;;;;;;;2.40;99.90;;;;;;5033463;28;19913;-80
2022/01/29 00:28:58;;;;;;;;;;;2.40;99.90;;;;;;5036204;28;19910;-81
2022/01/29 00:31:26;;;;;;;;;;;2.40;99.90;;;;;;5033415;28;19932;-81
2022/01/29 00:33:53;;;;;;;;;;;2.40;99.90;;;;;;5038158;28;19913;-81
2022/01/29 00:36:20;;;;;;;;;;;2.40;99.90;;;;;;5036448;28;19917;-81
2022/01/29 00:38:47;;;;;;;;;;;2.40;99.90;;;;;;5036413;28;19914;-81
2022/01/29 00:41:14;;;;;;;;;;;2.40;99.90;;;;;;5035009;28;19914;-81
2022/01/29 00:43:40;;;;;;;;;;;2.40;99.90;;;;;;5035464;28;19910;-81
2022/01/29 00:46:07;;;;;;;;;;;2.40;99.90;;;;;;5038309;28;19909;-82
2022/01/29 00:48:35;;;;;;;;;;;2.40;99.90;;;;;;5041833;28;19924;-80
2022/01/29 00:51:02;;;;;;;;;;;2.30;99.90;;;;;;5033968;28;19921;-81
2022/01/29 00:53:29;;;;;;;;;;;2.30;99.90;;;;;;5036639;28;19944;-81
2022/01/29 00:55:56;;;;;;;;;;;2.30;99.90;;;;;;5034049;28;19935;-81
2022/01/29 00:58:23;;;;;;;;;;;2.30;99.90;;;;;;5036409;28;19976;-82
2022/01/29 01:00:50;;;;;;;;;;;2.40;99.90;;;;;;5034308;28;19984;-81
2022/01/29 01:03:17;;;;;;;;;;;2.30;99.90;;;;;;5037101;28;20509;-81
2022/01/29 01:05:45;;;;;;;;;;;2.30;99.90;;;;;;5043274;28;19913;-82
2022/01/29 01:08:12;;;;;;;;;;;2.30;99.90;;;;;;5037637;28;19914;-81
2022/01/29 01:10:39;;;;;;;;;;;2.30;99.90;;;;;;5052913;28;19930;-80
2022/01/29 01:13:06;;;;;;;;;;;2.30;99.90;;;;;;5044082;28;19917;-80
2022/01/29 01:15:33;;;;;;;;;;;2.30;99.90;;;;;;5044042;28;19926;-81
2022/01/29 01:18:00;;;;;;;;;;;2.30;99.90;;;;;;5040974;28;19926;-81
2022/01/29 01:20:27;;;;;;;;;;;2.30;99.90;;;;;;5040129;28;19941;-81
2022/01/29 01:22:56;;;;;;;;;;;2.30;99.90;;;;;;5032836;28;19953;-82
2022/01/29 01:25:23;;;;;;;;;;;2.30;99.90;;;;;;5029974;28;19923;-83
2022/01/29 01:27:51;;;;;;;;;;;2.30;99.90;;;;;;5039749;28;19921;-81
2022/01/29 01:30:18;;;;;;;;;;;2.30;99.90;;;;;;5035524;28;19925;-81
2022/01/29 01:32:45;;;;;;;;;;;2.20;99.90;;;;;;5036467;28;19913;-81
2022/01/29 01:35:18;;;;;;;;;;;2.20;99.90;;;;;;5042448;28;19922;-80
2022/01/29 01:37:50;;;;;;;;;;;2.20;99.90;;;;;;5037464;28;19914;-81
2022/01/29 01:40:19;;;;;;;;;;;2.20;99.90;;;;;;5037947;28;20032;-81
2022/01/29 01:42:46;;;;;;;;;;;2.20;99.90;;;;;;5038135;28;19988;-81
2022/01/29 01:45:13;;;;;;;;;;;2.20;99.90;;;;;;5036550;28;19936;-81
2022/01/29 01:47:40;;;;;;;;;;;2.20;99.90;;;;;;5038934;28;19976;-81
2022/01/29 01:50:08;;;;;;;;;;;2.20;99.90;;;;;;5036865;28;20044;-82
2022/01/29 01:52:35;;;;;;;;;;;2.20;99.90;;;;;;5040269;28;19910;-81
2022/01/29 01:55:02;;;;;;;;;;;2.20;99.90;;;;;;5040048;28;19925;-81
2022/01/29 01:57:31;;;;;;;;;;;2.20;99.90;;;;;;5051917;28;19920;-81
2022/01/29 01:59:58;;;;;;;;;;;2.20;99.90;;;;;;5035767;28;19937;-81
2022/01/29 02:02:25;;;;;;;;;;;2.20;99.90;;;;;;5035110;28;19924;-80
2022/01/29 02:04:51;;;;;;;;;;;2.20;99.90;;;;;;5037343;28;19916;-81
2022/01/29 02:07:19;;;;;;;;;;;2.20;99.90;;;;;;5038951;28;19940;-81
2022/01/29 02:09:46;;;;;;;;;;;2.10;99.90;;;;;;5036281;28;19985;-81
2022/01/29 02:12:14;;;;;;;;;;;2.10;99.90;;;;;;5036681;28;19932;-81
2022/01/29 02:14:44;;;;;;;;;;;2.10;99.90;;;;;;5036756;28;19934;-81
2022/01/29 02:17:11;;;;;;;;;;;2.10;99.90;;;;;;5037290;28;19929;-81
2022/01/29 02:19:38;;;;;;;;;;;2.10;99.90;;;;;;5036512;28;19971;-81
2022/01/29 02:22:07;;;;;;;;;;;2.10;99.90;;;;;;5037044;28;19996;-81
2022/01/29 02:24:34;;;;;;;;;;;2.10;99.90;;;;;;5039328;28;19941;-81
2022/01/29 02:27:01;;;;;;;;;;;2.10;99.90;;;;;;5034948;28;19967;-81
2022/01/29 02:29:27;;;;;;;;;;;2.10;99.90;;;;;;5036601;28;20000;-81
2022/01/29 02:31:55;;;;;;;;;;;2.10;99.90;;;;;;5041500;28;19925;-80
2022/01/29 02:34:23;;;;;;;;;;;2.00;99.90;;;;;;5035617;28;19910;-81
2022/01/29 02:36:51;;;;;;;;;;;2.10;99.90;;;;;;5031738;28;19913;-80
2022/01/29 02:39:20;;;;;;;;;;;2.10;99.90;;;;;;5037285;28;19933;-81
2022/01/29 02:41:48;;;;;;;;;;;2.10;99.90;;;;;;5033033;28;19940;-81
2022/01/29 02:44:18;;;;;;;;;;;2.10;99.90;;;;;;5034800;28;19926;-81
2022/01/29 02:46:54;;;;;;;;;;;2.10;99.90;;;;;;5033692;28;19926;-82
2022/01/29 02:49:22;;;;;;;;;;;2.10;99.90;;;;;;5039518;28;19914;-81
2022/01/29 02:51:50;;;;;;;;;;;2.10;99.90;;;;;;5036518;28;19929;-81
2022/01/29 02:54:17;;;;;;;;;;;2.10;99.90;;;;;;5030782;28;19980;-84
2022/01/29 02:56:45;;;;;;;;;;;2.00;99.90;;;;;;5051321;28;19933;-83
2022/01/29 02:59:12;;;;;;;;;;;2.00;99.90;;;;;;5038448;28;19925;-81
2022/01/29 03:01:39;;;;;;;;;;;2.00;99.90;;;;;;5036655;28;20345;-80
2022/01/29 03:04:07;;;;;;;;;;;2.00;99.90;;;;;;5032860;28;19993;-81
2022/01/29 03:06:34;;;;;;;;;;;2.00;99.90;;;;;;5029759;28;19996;-81
2022/01/29 03:09:01;;;;;;;;;;;2.00;99.90;;;;;;5033312;28;19913;-81
2022/01/29 03:11:28;;;;;;;;;;;2.00;99.90;;;;;;5035893;28;19993;-81
2022/01/29 03:13:56;;;;;;;;;;;2.00;99.90;;;;;;5032582;28;19929;-84
2022/01/29 03:16:23;;;;;;;;;;;2.00;99.90;;;;;;5035187;28;20557;-88
2022/01/29 03:18:50;;;;;;;;;;;2.00;99.90;;;;;;5037314;28;19948;-81
2022/01/29 03:21:17;;;;;;;;;;;2.00;99.90;;;;;;5033894;28;19921;-82
2022/01/29 03:23:44;;;;;;;;;;;2.00;99.90;;;;;;5039460;28;19980;-81
2022/01/29 03:26:11;;;;;;;;;;;2.00;99.90;;;;;;5033029;28;19936;-81
2022/01/29 03:28:38;;;;;;;;;;;2.00;99.90;;;;;;5033610;28;19956;-82
2022/01/29 03:31:06;;;;;;;;;;;2.00;99.90;;;;;;5032003;28;19916;-81
2022/01/29 03:33:33;;;;;;;;;;;2.00;99.90;;;;;;5037518;28;19936;-81
2022/01/29 03:36:00;;;;;;;;;;;2.00;99.90;;;;;;5034172;28;19936;-81
2022/01/29 03:38:27;;;;;;;;;;;2.00;99.90;;;;;;5036424;28;20411;-81
2022/01/29 03:40:57;;;;;;;;;;;2.00;99.90;;;;;;5034482;28;19936;-81
2022/01/29 03:43:29;;;;;;;;;;;2.00;99.90;;;;;;5033276;28;19961;-81
2022/01/29 03:45:56;;;;;;;;;;;2.00;99.90;;;;;;5029759;28;19996;-81
2022/01/29 03:48:24;;;;;;;;;;;2.00;99.90;;;;;;5034234;28;19939;-81
2022/01/29 03:50:51;;;;;;;;;;;2.00;99.90;;;;;;5036817;28;19948;-81
2022/01/29 03:53:18;;;;;;;;;;;2.00;99.90;;;;;;5033997;28;19917;-81
2022/01/29 03:55:45;;;;;;;;;;;2.00;99.90;;;;;;5034619;28;19921;-80
2022/01/29 03:58:12;;;;;;;;;;;2.00;99.90;;;;;;5033242;28;20262;-80
2022/01/29 04:00:39;;;;;;;;;;;2.00;99.90;;;;;;5033000;28;19989;-81
2022/01/29 04:03:05;;;;;;;;;;;2.00;99.90;;;;;;5025065;28;19914;-82
2022/01/29 04:05:34;;;;;;;;;;;2.00;99.90;;;;;;5028974;28;19936;-81
2022/01/29 04:08:01;;;;;;;;;;;2.00;99.90;;;;;;5030421;28;19925;-81
2022/01/29 04:10:29;;;;;;;;;;;1.90;99.90;;;;;;5032672;28;19922;-82
2022/01/29 04:12:56;;;;;;;;;;;1.90;99.90;;;;;;5032845;28;19932;-81
2022/01/29 04:15:23;;;;;;;;;;;1.90;99.90;;;;;;5036468;28;19917;-81
2022/01/29 04:17:50;;;;;;;;;;;1.90;99.90;;;;;;5033218;28;19913;-81
2022/01/29 04:20:17;;;;;;;;;;;1.90;99.90;;;;;;5036990;28;19957;-83
2022/01/29 04:22:45;;;;;;;;;;;1.90;99.90;;;;;;5042034;28;19976;-80
2022/01/29 04:25:12;;;;;;;;;;;1.90;99.90;;;;;;5032681;28;19932;-81
2022/01/29 04:27:42;;;;;;;;;;;1.90;99.90;;;;;;5034635;28;20048;-81
2022/01/29 04:30:14;;;;;;;;;;;1.90;99.90;;;;;;5031957;28;19933;-81
2022/01/29 04:35:27;;;;;;;;;;;1.90;99.90;;;;;;5036229;28;19906;-82
2022/01/29 04:37:55;;;;;;;;;;;1.90;99.90;;;;;;5040020;28;20000;-82
2022/01/29 04:40:22;;;;;;;;;;;1.90;99.90;;;;;;5033784;28;19925;-83
2022/01/29 04:42:49;;;;;;;;;;;1.90;99.90;;;;;;5032860;28;19932;-81
2022/01/29 04:45:16;;;;;;;;;;;1.90;99.90;;;;;;5030707;28;19925;-81
2022/01/29 04:47:45;;;;;;;;;;;1.90;99.90;;;;;;5032646;28;20583;-81
2022/01/29 04:50:12;;;;;;;;;;;1.90;99.90;;;;;;5036386;28;19925;-81
2022/01/29 04:52:39;;;;;;;;;;;1.90;99.90;;;;;;5029880;28;19936;-81
2022/01/29 04:55:08;;;;;;;;;;;1.90;99.90;;;;;;5031806;28;20001;-81
2022/01/29 04:57:37;;;;;;;;;;;1.90;99.90;;;;;;5033792;28;20473;-81
2022/01/29 05:00:06;;;;;;;;;;;1.90;99.90;;;;;;5034067;28;19948;-81
2022/01/29 05:02:33;;;;;;;;;;;1.90;99.90;;;;;;5032177;28;19932;-81
2022/01/29 05:05:00;;;;;;;;;;;1.90;99.90;;;;;;5029529;28;19960;-85
2022/01/29 05:07:27;;;;;;;;;;;1.90;99.90;;;;;;5036976;28;19979;-81
2022/01/29 05:09:54;;;;;;;;;;;1.90;99.90;;;;;;5027903;28;19932;-81
2022/01/29 05:12:28;;;;;;;;;;;1.90;99.90;;;;;;5029753;28;19921;-81
2022/01/29 05:15:07;;;;;;;;;;;1.90;99.90;;;;;;5037719;28;19926;-81
2022/01/29 05:28:33;;;;;;;;;;;1.90;99.90;;;;;;5035415;28;19921;-81
2022/01/29 05:31:00;;;;;;;;;;;1.90;99.90;;;;;;5029314;28;19949;-81
2022/01/29 05:33:27;;;;;;;;;;;1.90;99.90;;;;;;5026069;28;19929;-81
2022/01/29 05:35:54;;;;;;;;;;;1.90;99.90;;;;;;5031259;28;19926;-83
2022/01/29 05:38:21;;;;;;;;;;;1.90;99.90;;;;;;5031718;28;19913;-81
2022/01/29 05:40:48;;;;;;;;;;;1.90;99.90;;;;;;5043304;28;19929;-81
2022/01/29 05:43:15;;;;;;;;;;;1.90;99.90;;;;;;5030961;28;19972;-81
2022/01/29 05:45:43;;;;;;;;;;;1.90;99.90;;;;;;5029218;28;19984;-81
2022/01/29 05:48:10;;;;;;;;;;;1.90;99.90;;;;;;5032019;28;19929;-80
2022/01/29 05:50:37;;;;;;;;;;;1.80;99.90;;;;;;5037124;28;19937;-81
2022/01/29 05:53:04;;;;;;;;;;;1.80;99.90;;;;;;5040147;28;19926;-81
2022/01/29 05:55:31;;;;;;;;;;;1.80;99.90;;;;;;5048073;28;19956;-82
2022/01/29 05:57:58;;;;;;;;;;;1.80;99.90;;;;;;5032549;28;19925;-83
2022/01/29 06:00:25;;;;;;;;;;;1.80;99.90;;;;;;5043065;28;19921;-81
2022/01/29 06:03:03;;;;;;;;;;;1.90;99.90;;;;;;5034233;28;19925;-81
2022/01/29 06:05:30;;;;;;;;;;;1.80;99.90;;;;;;5036464;28;20017;-80
2022/01/29 06:07:57;;;;;;;;;;;1.90;99.90;;;;;;5038660;28;19920;-81
2022/01/29 06:10:24;;;;;;;;;;;1.80;99.90;;;;;;5033394;28;19986;-80
2022/01/29 06:12:57;;;;;;;;;;;1.80;99.90;;;;;;5034018;28;19929;-81
2022/01/29 06:15:24;;;;;;;;;;;1.80;99.90;;;;;;5031045;28;19926;-81
2022/01/29 06:17:51;;;;;;;;;;;1.80;99.90;;;;;;5038915;28;20462;-81
2022/01/29 06:20:20;;;;;;;;;;;1.90;99.90;;;;;;5033680;28;19925;-81
2022/01/29 06:22:47;;;;;;;;;;;1.80;99.90;;;;;;5029531;28;19989;-82
2022/01/29 06:25:14;;;;;;;;;;;1.80;99.90;;;;;;5048685;28;19933;-81
2022/01/29 06:27:40;;;;;;;;;;;1.90;99.90;;;;;;5037315;28;19930;-81
2022/01/29 06:30:08;;;;;;;;;;;1.80;99.90;;;;;;5039589;28;19925;-80
2022/01/29 06:32:35;;;;;;;;;;;1.80;99.90;;;;;;5032311;28;19996;-83
2022/01/29 06:35:02;;;;;;;;;;;1.80;99.90;;;;;;5027965;28;19925;-81
2022/01/29 06:37:30;;;;;;;;;;;1.80;99.90;;;;;;5039972;28;19929;-81
2022/01/29 06:39:57;;;;;;;;;;;1.80;99.90;;;;;;5024809;28;19921;-82
2022/01/29 06:42:24;;;;;;;;;;;1.80;99.90;;;;;;5021661;28;19924;-81
2022/01/29 06:44:51;;;;;;;;;;;1.80;99.90;;;;;;5026124;28;19933;-81
2022/01/29 06:47:18;;;;;;;;;;;1.80;99.90;;;;;;5030399;28;19988;-81
2022/01/29 06:49:44;;;;;;;;;;;1.80;99.90;;;;;;5034392;28;19945;-82
2022/01/29 06:52:11;;;;;;;;;;;1.80;99.90;;;;;;5030082;28;19936;-81
2022/01/29 06:54:39;;;;;;;;;;;1.80;99.90;;;;;;5028636;28;19934;-81
2022/01/29 06:57:07;;;;;;;;;;;1.80;99.90;;;;;;5024859;28;19928;-82
2022/01/29 06:59:33;;;;;;;;;;;1.80;99.90;;;;;;5027116;28;19925;-82
2022/01/29 07:02:00;;;;;;;;;;;1.80;99.90;;;;;;5031054;28;19929;-81
2022/01/29 07:04:27;;;;;;;;;;;1.80;99.90;;;;;;5023926;28;19937;-81
2022/01/29 07:06:54;;;;;;;;;;;1.80;99.90;;;;;;5042755;28;19936;-81
2022/01/29 07:09:21;;;;;;;;;;;1.80;99.90;;;;;;5026979;28;19916;-81
2022/01/29 07:11:55;;;;;;;;;;;1.80;99.90;;;;;;5032116;28;19941;-81
2022/01/29 07:14:22;;;;;;;;;;;1.80;99.90;;;;;;5037028;28;19930;-81
2022/01/29 07:16:50;;;;;;;;;;;1.80;99.90;;;;;;5028175;28;19969;-82
2022/01/29 07:19:16;;;;;;;;;;;1.80;99.90;;;;;;5022617;28;19947;-80
2022/01/29 07:21:44;;;;;;;;;;;1.80;99.90;;;;;;5028278;28;19993;-81
2022/01/29 07:24:11;;;;;;;;;;;1.80;99.90;;;;;;5034942;28;19921;-81
2022/01/29 07:26:38;;;;;;;;;;;1.90;99.90;;;;;;5030564;28;19922;-82
2022/01/29 07:29:06;;;;;;;;;;;1.80;99.90;;;;;;5030271;28;19913;-81
2022/01/29 07:31:33;;;;;;;;;;;1.80;99.90;;;;;;5031712;28;19913;-82
2022/01/29 07:34:00;;;;;;;;;;;1.80;99.90;;;;;;5042867;28;19989;-81
2022/01/29 07:36:27;;;;;;;;;;;1.80;99.90;;;;;;5034808;28;20213;-81
2022/01/29 07:38:54;;;;;;;;;;;1.80;99.90;;;;;;5030508;28;19989;-81
2022/01/29 07:41:20;;;;;;;;;;;1.80;99.90;;;;;;5030684;28;19964;-82
2022/01/29 07:43:47;;;;;;;;;;;1.80;99.90;;;;;;5023661;28;19914;-81
2022/01/29 07:46:15;;;;;;;;;;;1.80;99.90;;;;;;5026613;28;19927;-81
2022/01/29 07:48:42;;;;;;;;;;;1.80;99.90;;;;;;5021883;28;19926;-82
2022/01/29 07:51:09;;;;;;;;;;;1.80;99.90;;;;;;5023703;28;20486;-81
2022/01/29 07:53:36;;;;;;;;;;;1.80;99.90;;;;;;5028728;28;19981;-80
2022/01/29 07:56:03;;;;;;;;;;;1.80;99.90;;;;;;5024275;28;19930;-81
2022/01/29 07:58:30;;;;;;;;;;;1.80;99.90;;;;;;5034505;28;19913;-81
2022/01/29 08:00:57;;;;;;;;;;;1.80;99.90;;;;;;5032379;28;19925;-86
2022/01/29 08:03:26;;;;;;;;;;;1.80;99.90;;;;;;5029085;28;19961;-81
2022/01/29 08:05:53;;;;;;;;;;;1.80;99.90;;;;;;5017627;28;19913;-80
2022/01/29 08:08:20;;;;;;;;;;;1.80;99.90;;;;;;5029051;28;19925;-81
2022/01/29 08:10:47;;;;;;;;;;;1.80;99.90;;;;;;5035325;28;19914;-85
2022/01/29 08:13:14;;;;;;;;;;;1.80;99.90;;;;;;5030677;28;19925;-81
2022/01/29 08:15:41;;;;;;;;;;;1.80;99.90;;;;;;5029679;28;19921;-83
2022/01/29 08:18:08;;;;;;;;;;;1.80;99.90;;;;;;5033298;28;19921;-81
2022/01/29 08:20:36;;;;;;;;;;;1.80;99.90;;;;;;5038576;28;19913;-83
2022/01/29 08:23:06;;;;;;;;;;;1.80;99.90;;;;;;5029585;28;19928;-80
2022/01/29 08:25:33;;;;;;;;;;;1.80;99.90;;;;;;5034108;28;19920;-82
2022/01/29 08:28:00;;;;;;;;;;;1.80;99.90;;;;;;5034567;28;19909;-82
2022/01/29 08:30:27;;;;;;;;;;;1.80;99.90;;;;;;5037835;28;19910;-86
2022/01/29 08:32:56;;;;;;;;;;;1.80;99.90;;;;;;5029037;28;19968;-86
2022/01/29 08:35:23;;;;;;;;;;;1.80;99.90;;;;;;5026647;28;19952;-81
2022/01/29 08:37:51;;;;;;;;;;;1.80;99.90;;;;;;5025163;28;19976;-82
2022/01/29 08:40:18;;;;;;;;;;;1.80;99.90;;;;;;5030980;28;19969;-82
2022/01/29 08:42:45;;;;;;;;;;;1.80;99.90;;;;;;5028339;28;19914;-87
2022/01/29 08:45:13;;;;;;;;;;;1.90;99.90;;;;;;5032283;28;19933;-81
2022/01/29 08:47:40;;;;;;;;;;;1.80;99.90;;;;;;5026578;28;19949;-82
2022/01/29 08:50:07;;;;;;;;;;;1.80;99.90;;;;;;5029829;28;19914;-84
2022/01/29 08:52:35;;;;;;;;;;;1.90;99.90;;;;;;5028078;28;19932;-85
2022/01/29 08:55:04;;;;;;;;;;;1.90;99.90;;;;;;5031978;28;19933;-89
2022/01/29 08:57:32;;;;;;;;;;;1.90;99.90;;;;;;5030521;28;19948;-84
2022/01/29 09:00:00;;;;;;;;;;;1.90;99.90;;;;;;5043392;28;19922;-82
2022/01/29 09:02:27;;;;;;;;;;;2.00;99.90;;;;;;5029010;28;19921;-84
2022/01/29 09:04:55;;;;;;;;;;;2.00;99.90;;;;;;5025761;28;19909;-82
2022/01/29 09:07:22;;;;;;;;;;;2.00;99.90;;;;;;5031511;28;19943;-83
2022/01/29 09:09:49;;;;;;;;;;;2.20;99.90;;;;;;5030190;28;19913;-82
2022/01/29 09:12:17;;;;;;;;;;;2.30;99.90;;;;;;5029120;28;19928;-80
2022/01/29 09:14:44;;;;;;;;;;;2.50;99.90;;;;;;5019766;28;19950;-81
2022/01/29 09:17:11;;;;;;;;;;;2.70;99.90;;;;;;5027608;28;19930;-83
2022/01/29 09:19:38;;;;;;;;;;;2.70;99.90;;;;;;5031145;28;19909;-84
2022/01/29 09:22:05;;;;;;;;;;;2.70;99.90;;;;;;5030694;28;19968;-83
2022/01/29 09:24:32;;;;;;;;;;;2.70;99.90;;;;;;5029052;28;19961;-84
2022/01/29 09:27:00;;;;;;;;;;;2.70;99.90;;;;;;5027758;28;19913;-83
2022/01/29 09:29:28;;;;;;;;;;;2.70;99.90;;;;;;5034070;28;19953;-81
2022/01/29 09:31:55;;;;;;;;;;;2.90;99.90;;;;;;5030231;28;19920;-81
2022/01/29 09:34:22;;;;;;;;;;;3.00;99.90;;;;;;5032422;28;19918;-84
2022/01/29 09:36:50;;;;;;;;;;;3.10;99.90;;;;;;5033911;28;19921;-81
2022/01/29 09:41:55;;;;;;;;;;;3.20;99.90;;;;;;4895077;26;19921;-85
2022/01/29 09:44:22;;;;;;;;;;;3.20;99.90;;;;;;5073487;28;19957;-82
2022/01/29 09:47:01;;;;;;;;;;;3.20;99.90;;;;;;5074792;28;19967;-82
2022/01/29 09:52:20;;;;;;;;;;;3.00;99.90;;;;;;5086694;28;19939;-93
2022/01/29 09:54:49;;;;;;;;;;;3.10;99.90;;;;;;5069351;28;19952;-84
2022/01/29 09:57:22;;;;;;;;;;;3.10;99.90;;;;;;5160314;22;19927;-82
2022/01/29 09:59:50;;;;;;;;;;;3.10;99.90;;;;;;5149511;22;19923;-84
2022/01/29 10:02:30;;;;;;;;;;;3.10;99.90;;;;;;5084354;22;19924;-86
2022/01/29 10:10:18;;;;;;;;;;;3.00;99.90;;;;;;5016642;28;19913;-81
2022/01/29 10:12:49;;;;;;;;;;;3.10;99.90;;;;;;5105435;23;20028;-86
2022/01/29 10:17:55;;;;;;;;;;;3.10;99.90;;;;;;4850611;22;19940;-81
2022/01/29 10:20:23;;;;;;;;;;;3.10;99.90;;;;;;5063218;28;19933;-82
2022/01/29 10:25:36;;;;;;;;;;;3.10;99.90;;;;;;5047448;28;19917;-83
2022/01/29 10:28:08;;;;;;;;;;;3.40;99.90;;;;;;5062919;28;19909;-81
2022/01/29 10:30:36;;;;;;;;;;;3.70;99.90;;;;;;5049245;28;20600;-82
2022/01/29 10:35:56;;;;;;;;;;;3.80;99.90;;;;;;5032091;28;19933;-82
2022/01/29 10:38:23;;;;;;;;;;;3.80;99.90;;;;;;5030119;28;19936;-81
2022/01/29 10:41:09;;;;;;;;;;;3.80;99.90;;;;;;5033923;28;19972;-82
2022/01/29 10:43:36;;;;;;;;;;;3.70;99.90;;;;;;5268378;22;19913;-81
2022/01/29 10:46:03;;;;;;;;;;;3.80;99.90;;;;;;5029729;28;19914;-81
2022/01/29 10:48:44;;;;;;;;;;;3.80;99.90;;;;;;5059850;23;20703;-83
2022/01/29 10:51:21;;;;;;;;;;;3.80;99.90;;;;;;5062556;28;19921;-81
2022/01/29 10:54:15;;;;;;;;;;;3.80;99.90;;;;;;5278363;22;19909;-81
2022/01/29 10:56:50;;;;;;;;;;;3.70;99.90;;;;;;5051269;28;19910;-81
2022/01/29 11:01:59;;;;;;;;;;;3.70;99.90;;;;;;4820639;26;19940;-82
2022/01/29 11:04:28;;;;;;;;;;;3.70;99.90;;;;;;5263508;22;19915;-81
2022/01/29 11:09:46;;;;;;;;;;;3.70;99.90;;;;;;5330937;22;19912;-81
2022/01/29 11:12:17;;;;;;;;;;;3.70;99.90;;;;;;5292247;22;20728;-80
2022/01/29 11:14:46;;;;;;;;;;;3.70;99.90;;;;;;5067042;28;19912;-81
2022/01/29 11:17:15;;;;;;;;;;;3.70;99.90;;;;;;5071762;28;19909;-84
2022/01/29 11:19:44;;;;;;;;;;;3.70;99.90;;;;;;5073419;28;19909;-81
2022/01/29 11:22:13;;;;;;;;;;;3.70;99.90;;;;;;5070456;28;19913;-81
2022/01/29 11:24:43;;;;;;;;;;;3.70;99.90;;;;;;5052775;28;19980;-82
2022/01/29 11:30:05;;;;;;;;;;;3.70;99.90;;;;;;5477881;22;20690;-80
2022/01/29 11:35:13;;;;;;;;;;;3.70;99.90;;;;;;5016564;28;19941;-80
2022/01/29 11:54:30;;;;;;;;;;;3.80;99.90;;;;;;5293928;22;19936;-80
2022/01/29 16:36:23;;;;;;;;;;;4.90;99.90;;;;;;1614551;23;20259;-95
2022/01/29 17:00:40;;;;;;;;;;;5.50;99.90;;;;;;5179968;22;19949;-96
2022/01/29 17:03:07;;;;;;;;;;;5.50;99.90;;;;;;5035905;28;19932;-95
2022/01/29 17:05:35;;;;;;;;;;;5.50;99.90;;;;;;5034501;28;19916;-96
2022/01/29 17:34:58;;;;;;;;;;;5.70;99.90;;;;;;4655170;23;19988;-81
2022/01/29 17:37:35;;;;;;;;;;;5.70;99.90;;;;;;5042668;22;19921;-96
2022/01/29 17:40:10;;;;;;;;;;;5.70;99.90;;;;;;5066610;23;20540;-82
2022/01/29 17:42:37;;;;;;;;;;;5.70;99.90;;;;;;5018237;28;21457;-80
2022/01/29 17:45:09;;;;;;;;;;;5.70;99.90;;;;;;5337431;23;19922;-96
2022/01/29 17:47:41;;;;;;;;;;;5.70;99.90;;;;;;5014797;23;19941;-83
2022/01/29 18:06:20;;;;;;;;;;;5.80;99.90;;;;;;4254204;23;19962;-82
2022/01/29 18:14:07;;;;;;;;;;;5.80;99.90;;;;;;5530009;23;19997;-82
2022/01/29 18:16:35;;;;;;;;;;;5.80;99.90;;;;;;4983830;28;19934;-82
2022/01/29 18:19:02;;;;;;;;;;;5.80;99.90;;;;;;4975051;28;19981;-81
2022/01/29 18:21:31;;;;;;;;;;;5.80;99.90;;;;;;4982682;28;20024;-82
2022/01/29 18:23:59;;;;;;;;;;;5.80;99.90;;;;;;4958187;28;19934;-82
2022/01/29 18:26:37;;;;;;;;;;;5.80;99.90;;;;;;4958828;28;19934;-81
2022/01/29 18:29:04;;;;;;;;;;;5.80;99.90;;;;;;4955897;28;19923;-82
2022/01/29 18:31:31;;;;;;;;;;;5.80;99.90;;;;;;4977400;28;20021;-82
2022/01/29 18:33:59;;;;;;;;;;;5.80;99.90;;;;;;4959845;28;19958;-81
2022/01/29 18:36:33;;;;;;;;;;;5.80;99.90;;;;;;4962212;28;19914;-81
2022/01/29 18:44:27;;;;;;;;;;;5.70;99.90;;;;;;5859226;23;19940;-82
2022/01/29 19:23:11;;;;;;;;;;;5.50;99.90;;;;;;5398423;23;19945;-94
2022/01/29 19:25:38;;;;;;;;;;;5.50;99.90;;;;;;4983727;28;19934;-93
2022/01/29 19:28:07;;;;;;;;;;;5.50;99.90;;;;;;4986268;28;19923;-95
2022/01/29 19:30:34;;;;;;;;;;;5.50;99.90;;;;;;4987226;28;19989;-95
2022/01/29 19:33:01;;;;;;;;;;;5.50;99.90;;;;;;4981536;28;19922;-94
2022/01/29 19:35:28;;;;;;;;;;;5.50;99.90;;;;;;4975208;28;19930;-93
2022/01/29 19:37:56;;;;;;;;;;;5.50;99.90;;;;;;4986237;28;19922;-96
2022/01/29 19:40:25;;;;;;;;;;;5.60;99.90;;;;;;4973824;28;19930;-94
2022/01/29 19:42:53;;;;;;;;;;;5.60;99.90;;;;;;4986930;28;19934;-96
2022/01/29 19:50:44;;;;;;;;;;;5.70;99.90;;;;;;5072694;22;19929;-96
2022/01/29 19:53:11;;;;;;;;;;;5.70;99.90;;;;;;5011809;28;19929;-95
2022/01/29 19:55:40;;;;;;;;;;;5.70;99.90;;;;;;5016250;28;20123;-95
2022/01/29 19:58:08;;;;;;;;;;;5.70;99.90;;;;;;5004111;28;20674;-94
2022/01/29 20:00:35;;;;;;;;;;;5.70;99.90;;;;;;5002818;28;19921;-94
2022/01/29 20:03:02;;;;;;;;;;;5.70;99.90;;;;;;5004998;28;19921;-96
2022/01/29 20:05:29;;;;;;;;;;;5.70;99.90;;;;;;5003077;28;19936;-94
2022/01/29 20:07:56;;;;;;;;;;;5.70;99.90;;;;;;4998397;28;20203;-96
2022/01/29 20:10:27;;;;;;;;;;;5.70;99.90;;;;;;5015602;28;19972;-96
2022/01/29 21:34:26;;;;;;;;;;;5.70;99.90;;;;;;5043367;28;19924;-94
2022/01/29 21:36:53;;;;;;;;;;;5.70;99.90;;;;;;5027255;28;19945;-93
2022/01/29 21:39:20;;;;;;;;;;;5.70;99.90;;;;;;5048196;28;19913;-93
2022/01/29 21:41:47;;;;;;;;;;;5.70;99.90;;;;;;5026860;28;19992;-93
2022/01/29 21:44:14;;;;;;;;;;;5.70;99.90;;;;;;5028175;28;19920;-93
2022/01/29 21:46:42;;;;;;;;;;;5.70;99.90;;;;;;5027742;28;19981;-93
2022/01/29 21:49:08;;;;;;;;;;;5.60;99.90;;;;;;5023843;28;19933;-94
2022/01/29 21:51:37;;;;;;;;;;;5.70;99.90;;;;;;5047825;28;19913;-94
2022/01/29 21:54:05;;;;;;;;;;;5.70;99.90;;;;;;5026759;28;19948;-94
2022/01/29 21:56:32;;;;;;;;;;;5.60;99.90;;;;;;5034211;28;19924;-94
2022/01/29 21:58:59;;;;;;;;;;;5.60;99.90;;;;;;5037955;28;19913;-94
2022/01/29 22:01:26;;;;;;;;;;;5.60;99.90;;;;;;5048951;28;19913;-93
2022/01/29 22:03:53;;;;;;;;;;;5.60;99.90;;;;;;5028203;28;19944;-94
2022/01/29 22:06:20;;;;;;;;;;;5.60;99.90;;;;;;5039780;28;19932;-94
2022/01/29 22:08:49;;;;;;;;;;;5.60;99.90;;;;;;5025876;28;19933;-94
2022/01/29 22:11:16;;;;;;;;;;;5.60;99.90;;;;;;5028211;28;19920;-94
2022/01/29 22:13:43;;;;;;;;;;;5.60;99.90;;;;;;5045389;28;20001;-94
2022/01/29 22:16:10;;;;;;;;;;;5.60;99.90;;;;;;5043949;28;19917;-94
2022/01/29 22:18:37;;;;;;;;;;;5.60;99.90;;;;;;5024923;28;19971;-95
2022/01/29 22:21:04;;;;;;;;;;;5.60;99.90;;;;;;5027697;28;19934;-94
